sensor_id;sensor_type;location;lat;lon;timestamp;P1;durP1;ratioP1;P2;durP2;ratioP2
66946;SDS011;53853;51.982;5.928;2023-08-30T00:01:29;4.93;;;4.05;;
66946;SDS011;53853;51.982;5.928;2023-08-30T00:04:00;6.28;;;4.80;;
66946;SDS011;53853;51.982;5.928;2023-08-30T00:06:30;6.85;;;5.43;;
66946;SDS011;53853;51.982;5.928;2023-08-30T00:09:03;6.70;;;5.82;;
66946;SDS011;53853;51.982;5.928;2023-08-30T00:14:04;6.50;;;5.28;;
66946;SDS011;53853;51.982;5.928;2023-08-30T00:16:35;5.63;;;5.00;;
66946;SDS011;53853;51.982;5.928;2023-08-30T00:19:06;6.38;;;5.05;;
66946;SDS011;53853;51.982;5.928;2023-08-30T00:21:36;6.82;;;4.93;;
66946;SDS011;53853;51.982;5.928;2023-08-30T00:24:09;5.38;;;3.85;;
66946;SDS011;53853;51.982;5.928;2023-08-30T00:26:39;6.28;;;5.18;;
66946;SDS011;53853;51.982;5.928;2023-08-30T00:29:09;7.80;;;6.30;;
66946;SDS011;53853;51.982;5.928;2023-08-30T00:31:39;6.78;;;5.82;;
66946;SDS011;53853;51.982;5.928;2023-08-30T00:34:09;7.90;;;3.95;;
66946;SDS011;53853;51.982;5.928;2023-08-30T00:36:39;5.72;;;5.13;;
66946;SDS011;53853;51.982;5.928;2023-08-30T00:39:12;5.05;;;4.40;;
66946;SDS011;53853;51.982;5.928;2023-08-30T00:41:43;5.80;;;3.88;;
66946;SDS011;53853;51.982;5.928;2023-08-30T00:44:13;5.10;;;3.42;;
66946;SDS011;53853;51.982;5.928;2023-08-30T00:46:43;4.43;;;3.72;;
66946;SDS011;53853;51.982;5.928;2023-08-30T00:49:13;5.90;;;4.85;;
66946;SDS011;53853;51.982;5.928;2023-08-30T00:51:44;5.10;;;4.20;;
66946;SDS011;53853;51.982;5.928;2023-08-30T00:54:16;5.25;;;4.65;;
66946;SDS011;53853;51.982;5.928;2023-08-30T00:56:47;6.37;;;5.03;;
66946;SDS011;53853;51.982;5.928;2023-08-30T00:59:17;6.35;;;4.50;;
66946;SDS011;53853;51.982;5.928;2023-08-30T01:01:47;5.93;;;4.78;;
66946;SDS011;53853;51.982;5.928;2023-08-30T01:04:19;6.47;;;4.60;;
66946;SDS011;53853;51.982;5.928;2023-08-30T01:06:49;5.95;;;4.43;;
66946;SDS011;53853;51.982;5.928;2023-08-30T01:09:21;5.18;;;3.47;;
66946;SDS011;53853;51.982;5.928;2023-08-30T01:11:53;5.03;;;4.32;;
66946;SDS011;53853;51.982;5.928;2023-08-30T01:14:29;6.30;;;4.00;;
66946;SDS011;53853;51.982;5.928;2023-08-30T01:17:06;4.63;;;3.80;;
66946;SDS011;53853;51.982;5.928;2023-08-30T01:19:46;5.03;;;4.20;;
66946;SDS011;53853;51.982;5.928;2023-08-30T01:22:20;5.63;;;4.68;;
66946;SDS011;53853;51.982;5.928;2023-08-30T01:25:04;6.50;;;4.93;;
66946;SDS011;53853;51.982;5.928;2023-08-30T01:27:47;5.55;;;4.93;;
66946;SDS011;53853;51.982;5.928;2023-08-30T01:30:19;7.68;;;4.75;;
66946;SDS011;53853;51.982;5.928;2023-08-30T01:32:52;7.68;;;4.72;;
66946;SDS011;53853;51.982;5.928;2023-08-30T01:35:24;5.00;;;4.40;;
66946;SDS011;53853;51.982;5.928;2023-08-30T01:37:59;4.88;;;4.07;;
66946;SDS011;53853;51.982;5.928;2023-08-30T01:40:34;5.03;;;4.25;;
66946;SDS011;53853;51.982;5.928;2023-08-30T01:43:09;6.90;;;5.32;;
66946;SDS011;53853;51.982;5.928;2023-08-30T01:45:40;5.70;;;4.50;;
66946;SDS011;53853;51.982;5.928;2023-08-30T01:48:12;4.50;;;3.58;;
66946;SDS011;53853;51.982;5.928;2023-08-30T01:50:45;5.37;;;4.23;;
66946;SDS011;53853;51.982;5.928;2023-08-30T01:53:15;5.57;;;4.30;;
66946;SDS011;53853;51.982;5.928;2023-08-30T01:55:46;6.80;;;4.45;;
66946;SDS011;53853;51.982;5.928;2023-08-30T01:58:18;6.50;;;5.50;;
66946;SDS011;53853;51.982;5.928;2023-08-30T02:00:48;6.40;;;5.63;;
66946;SDS011;53853;51.982;5.928;2023-08-30T02:03:18;8.82;;;4.93;;
66946;SDS011;53853;51.982;5.928;2023-08-30T02:05:52;7.00;;;5.40;;
66946;SDS011;53853;51.982;5.928;2023-08-30T02:08:32;7.78;;;5.53;;
66946;SDS011;53853;51.982;5.928;2023-08-30T02:11:07;6.13;;;5.35;;
66946;SDS011;53853;51.982;5.928;2023-08-30T02:13:44;6.50;;;4.85;;
66946;SDS011;53853;51.982;5.928;2023-08-30T02:16:15;5.88;;;5.22;;
66946;SDS011;53853;51.982;5.928;2023-08-30T02:18:46;7.05;;;4.90;;
66946;SDS011;53853;51.982;5.928;2023-08-30T02:21:17;5.43;;;4.20;;
66946;SDS011;53853;51.982;5.928;2023-08-30T02:23:49;6.47;;;4.93;;
66946;SDS011;53853;51.982;5.928;2023-08-30T02:26:19;5.90;;;4.43;;
66946;SDS011;53853;51.982;5.928;2023-08-30T02:28:52;6.93;;;5.10;;
66946;SDS011;53853;51.982;5.928;2023-08-30T02:31:22;6.15;;;5.00;;
66946;SDS011;53853;51.982;5.928;2023-08-30T02:33:52;7.35;;;5.57;;
66946;SDS011;53853;51.982;5.928;2023-08-30T02:36:22;4.95;;;4.25;;
66946;SDS011;53853;51.982;5.928;2023-08-30T02:38:52;5.85;;;4.65;;
66946;SDS011;53853;51.982;5.928;2023-08-30T02:41:21;4.68;;;4.18;;
66946;SDS011;53853;51.982;5.928;2023-08-30T02:46:27;5.32;;;3.78;;
66946;SDS011;53853;51.982;5.928;2023-08-30T02:48:57;5.03;;;3.95;;
66946;SDS011;53853;51.982;5.928;2023-08-30T02:51:27;4.60;;;3.67;;
66946;SDS011;53853;51.982;5.928;2023-08-30T02:53:57;5.43;;;3.80;;
66946;SDS011;53853;51.982;5.928;2023-08-30T02:56:27;5.95;;;4.38;;
66946;SDS011;53853;51.982;5.928;2023-08-30T02:58:57;8.20;;;6.05;;
66946;SDS011;53853;51.982;5.928;2023-08-30T03:01:29;7.88;;;5.40;;
66946;SDS011;53853;51.982;5.928;2023-08-30T03:03:59;6.47;;;5.68;;
66946;SDS011;53853;51.982;5.928;2023-08-30T03:06:30;7.45;;;5.78;;
66946;SDS011;53853;51.982;5.928;2023-08-30T03:09:02;5.93;;;4.55;;
66946;SDS011;53853;51.982;5.928;2023-08-30T03:11:35;6.38;;;4.65;;
66946;SDS011;53853;51.982;5.928;2023-08-30T03:14:06;6.60;;;4.65;;
66946;SDS011;53853;51.982;5.928;2023-08-30T03:16:40;6.45;;;5.20;;
66946;SDS011;53853;51.982;5.928;2023-08-30T03:19:11;8.20;;;5.72;;
66946;SDS011;53853;51.982;5.928;2023-08-30T03:21:43;6.97;;;5.20;;
66946;SDS011;53853;51.982;5.928;2023-08-30T03:24:13;6.90;;;5.55;;
66946;SDS011;53853;51.982;5.928;2023-08-30T03:26:43;7.00;;;4.30;;
66946;SDS011;53853;51.982;5.928;2023-08-30T03:29:13;6.00;;;4.60;;
66946;SDS011;53853;51.982;5.928;2023-08-30T03:31:45;7.63;;;6.63;;
66946;SDS011;53853;51.982;5.928;2023-08-30T03:34:16;6.65;;;5.22;;
66946;SDS011;53853;51.982;5.928;2023-08-30T03:36:46;8.20;;;5.32;;
66946;SDS011;53853;51.982;5.928;2023-08-30T03:41:50;8.07;;;6.35;;
66946;SDS011;53853;51.982;5.928;2023-08-30T03:44:20;6.35;;;5.55;;
66946;SDS011;53853;51.982;5.928;2023-08-30T03:46:52;7.50;;;5.22;;
66946;SDS011;53853;51.982;5.928;2023-08-30T03:49:23;6.20;;;5.05;;
66946;SDS011;53853;51.982;5.928;2023-08-30T03:51:53;6.03;;;5.15;;
66946;SDS011;53853;51.982;5.928;2023-08-30T03:54:23;7.78;;;6.28;;
66946;SDS011;53853;51.982;5.928;2023-08-30T03:56:53;8.10;;;6.60;;
66946;SDS011;53853;51.982;5.928;2023-08-30T03:59:23;8.15;;;6.97;;
66946;SDS011;53853;51.982;5.928;2023-08-30T04:01:56;7.45;;;6.65;;
66946;SDS011;53853;51.982;5.928;2023-08-30T04:04:27;8.60;;;7.35;;
66946;SDS011;53853;51.982;5.928;2023-08-30T04:06:57;8.02;;;7.13;;
66946;SDS011;53853;51.982;5.928;2023-08-30T04:09:28;8.27;;;6.38;;
66946;SDS011;53853;51.982;5.928;2023-08-30T04:11:58;7.90;;;7.07;;
66946;SDS011;53853;51.982;5.928;2023-08-30T04:14:30;9.48;;;7.45;;
66946;SDS011;53853;51.982;5.928;2023-08-30T04:17:03;10.25;;;6.80;;
66946;SDS011;53853;51.982;5.928;2023-08-30T04:19:34;10.23;;;8.18;;
66946;SDS011;53853;51.982;5.928;2023-08-30T04:22:08;9.60;;;8.05;;
66946;SDS011;53853;51.982;5.928;2023-08-30T04:24:38;8.82;;;6.78;;
66946;SDS011;53853;51.982;5.928;2023-08-30T04:27:08;7.57;;;6.60;;
66946;SDS011;53853;51.982;5.928;2023-08-30T04:29:38;8.70;;;7.80;;
66946;SDS011;53853;51.982;5.928;2023-08-30T04:32:13;8.63;;;7.22;;
66946;SDS011;53853;51.982;5.928;2023-08-30T04:34:43;9.98;;;7.57;;
66946;SDS011;53853;51.982;5.928;2023-08-30T04:37:13;10.93;;;7.60;;
66946;SDS011;53853;51.982;5.928;2023-08-30T04:39:43;11.70;;;8.65;;
66946;SDS011;53853;51.982;5.928;2023-08-30T04:42:16;8.48;;;7.22;;
66946;SDS011;53853;51.982;5.928;2023-08-30T04:44:46;8.98;;;7.78;;
66946;SDS011;53853;51.982;5.928;2023-08-30T04:47:19;9.32;;;8.25;;
66946;SDS011;53853;51.982;5.928;2023-08-30T04:49:50;8.82;;;7.93;;
66946;SDS011;53853;51.982;5.928;2023-08-30T04:52:20;9.32;;;7.55;;
66946;SDS011;53853;51.982;5.928;2023-08-30T04:54:50;8.15;;;7.10;;
66946;SDS011;53853;51.982;5.928;2023-08-30T04:57:21;9.35;;;7.13;;
66946;SDS011;53853;51.982;5.928;2023-08-30T04:59:52;10.68;;;8.40;;
66946;SDS011;53853;51.982;5.928;2023-08-30T05:02:24;10.38;;;8.48;;
66946;SDS011;53853;51.982;5.928;2023-08-30T05:05:00;8.93;;;7.22;;
66946;SDS011;53853;51.982;5.928;2023-08-30T05:07:32;9.98;;;8.90;;
66946;SDS011;53853;51.982;5.928;2023-08-30T05:10:02;10.65;;;8.40;;
66946;SDS011;53853;51.982;5.928;2023-08-30T05:12:33;11.05;;;8.43;;
66946;SDS011;53853;51.982;5.928;2023-08-30T05:15:05;8.23;;;6.80;;
66946;SDS011;53853;51.982;5.928;2023-08-30T05:17:38;10.50;;;7.45;;
66946;SDS011;53853;51.982;5.928;2023-08-30T05:20:08;7.55;;;6.55;;
66946;SDS011;53853;51.982;5.928;2023-08-30T05:22:39;10.75;;;7.85;;
66946;SDS011;53853;51.982;5.928;2023-08-30T05:25:08;8.10;;;6.85;;
66946;SDS011;53853;51.982;5.928;2023-08-30T05:27:38;10.82;;;8.35;;
66946;SDS011;53853;51.982;5.928;2023-08-30T05:30:09;10.02;;;7.60;;
66946;SDS011;53853;51.982;5.928;2023-08-30T05:32:43;9.55;;;7.60;;
66946;SDS011;53853;51.982;5.928;2023-08-30T05:35:35;13.05;;;8.30;;
66946;SDS011;53853;51.982;5.928;2023-08-30T05:38:13;9.38;;;7.68;;
66946;SDS011;53853;51.982;5.928;2023-08-30T05:40:53;9.35;;;7.43;;
66946;SDS011;53853;51.982;5.928;2023-08-30T05:43:23;7.85;;;6.30;;
66946;SDS011;53853;51.982;5.928;2023-08-30T05:45:53;10.13;;;7.68;;
66946;SDS011;53853;51.982;5.928;2023-08-30T05:48:29;12.05;;;8.15;;
66946;SDS011;53853;51.982;5.928;2023-08-30T05:50:59;9.57;;;7.85;;
66946;SDS011;53853;51.982;5.928;2023-08-30T05:53:29;10.18;;;7.50;;
66946;SDS011;53853;51.982;5.928;2023-08-30T05:55:59;8.05;;;6.70;;
66946;SDS011;53853;51.982;5.928;2023-08-30T05:58:29;10.45;;;7.80;;
66946;SDS011;53853;51.982;5.928;2023-08-30T06:00:59;10.18;;;8.07;;
66946;SDS011;53853;51.982;5.928;2023-08-30T06:03:32;9.73;;;7.65;;
66946;SDS011;53853;51.982;5.928;2023-08-30T06:06:02;10.40;;;7.50;;
66946;SDS011;53853;51.982;5.928;2023-08-30T06:08:33;9.80;;;7.60;;
66946;SDS011;53853;51.982;5.928;2023-08-30T06:11:03;8.65;;;6.97;;
66946;SDS011;53853;51.982;5.928;2023-08-30T06:13:33;9.00;;;7.68;;
66946;SDS011;53853;51.982;5.928;2023-08-30T06:16:03;9.68;;;7.40;;
66946;SDS011;53853;51.982;5.928;2023-08-30T06:18:36;11.13;;;8.48;;
66946;SDS011;53853;51.982;5.928;2023-08-30T06:21:07;7.85;;;6.68;;
66946;SDS011;53853;51.982;5.928;2023-08-30T06:23:37;11.32;;;8.75;;
66946;SDS011;53853;51.982;5.928;2023-08-30T06:26:07;12.63;;;10.82;;
66946;SDS011;53853;51.982;5.928;2023-08-30T06:28:37;10.15;;;7.45;;
66946;SDS011;53853;51.982;5.928;2023-08-30T06:31:08;11.57;;;9.20;;
66946;SDS011;53853;51.982;5.928;2023-08-30T06:33:41;11.07;;;8.63;;
66946;SDS011;53853;51.982;5.928;2023-08-30T06:36:12;8.57;;;6.88;;
66946;SDS011;53853;51.982;5.928;2023-08-30T06:38:43;8.05;;;6.63;;
66946;SDS011;53853;51.982;5.928;2023-08-30T06:41:13;6.13;;;5.20;;
66946;SDS011;53853;51.982;5.928;2023-08-30T06:43:43;6.95;;;5.22;;
66946;SDS011;53853;51.982;5.928;2023-08-30T06:46:13;6.93;;;6.15;;
66946;SDS011;53853;51.982;5.928;2023-08-30T06:48:45;7.82;;;6.13;;
66946;SDS011;53853;51.982;5.928;2023-08-30T06:51:15;8.52;;;7.72;;
66946;SDS011;53853;51.982;5.928;2023-08-30T06:53:45;8.18;;;6.22;;
66946;SDS011;53853;51.982;5.928;2023-08-30T06:56:15;7.93;;;6.70;;
66946;SDS011;53853;51.982;5.928;2023-08-30T06:58:45;7.97;;;6.20;;
66946;SDS011;53853;51.982;5.928;2023-08-30T07:01:15;7.05;;;6.35;;
66946;SDS011;53853;51.982;5.928;2023-08-30T07:03:48;6.65;;;5.05;;
66946;SDS011;53853;51.982;5.928;2023-08-30T07:06:18;4.97;;;4.25;;
66946;SDS011;53853;51.982;5.928;2023-08-30T07:08:47;5.20;;;4.10;;
66946;SDS011;53853;51.982;5.928;2023-08-30T07:11:17;7.15;;;4.97;;
66946;SDS011;53853;51.982;5.928;2023-08-30T07:13:47;5.05;;;4.32;;
66946;SDS011;53853;51.982;5.928;2023-08-30T07:16:17;6.80;;;4.80;;
66946;SDS011;53853;51.982;5.928;2023-08-30T07:18:50;4.80;;;4.03;;
66946;SDS011;53853;51.982;5.928;2023-08-30T07:21:20;4.82;;;4.22;;
66946;SDS011;53853;51.982;5.928;2023-08-30T07:23:50;6.20;;;5.40;;
66946;SDS011;53853;51.982;5.928;2023-08-30T07:26:20;7.38;;;5.93;;
66946;SDS011;53853;51.982;5.928;2023-08-30T07:28:50;7.32;;;6.50;;
66946;SDS011;53853;51.982;5.928;2023-08-30T07:31:20;8.48;;;6.80;;
66946;SDS011;53853;51.982;5.928;2023-08-30T07:33:52;8.55;;;7.55;;
66946;SDS011;53853;51.982;5.928;2023-08-30T07:36:24;10.25;;;8.25;;
66946;SDS011;53853;51.982;5.928;2023-08-30T07:38:54;9.25;;;6.80;;
66946;SDS011;53853;51.982;5.928;2023-08-30T07:41:24;13.35;;;10.23;;
66946;SDS011;53853;51.982;5.928;2023-08-30T07:43:54;13.32;;;9.25;;
66946;SDS011;53853;51.982;5.928;2023-08-30T07:46:24;8.60;;;7.65;;
66946;SDS011;53853;51.982;5.928;2023-08-30T07:48:57;7.10;;;5.90;;
66946;SDS011;53853;51.982;5.928;2023-08-30T07:51:27;8.90;;;7.47;;
66946;SDS011;53853;51.982;5.928;2023-08-30T07:53:57;8.00;;;5.95;;
66946;SDS011;53853;51.982;5.928;2023-08-30T07:56:27;13.15;;;7.22;;
66946;SDS011;53853;51.982;5.928;2023-08-30T07:58:56;7.45;;;4.90;;
66946;SDS011;53853;51.982;5.928;2023-08-30T08:01:26;8.25;;;6.43;;
66946;SDS011;53853;51.982;5.928;2023-08-30T08:03:59;7.10;;;5.45;;
66946;SDS011;53853;51.982;5.928;2023-08-30T08:06:29;8.45;;;5.38;;
66946;SDS011;53853;51.982;5.928;2023-08-30T08:08:59;5.93;;;5.18;;
66946;SDS011;53853;51.982;5.928;2023-08-30T08:11:29;5.95;;;4.78;;
66946;SDS011;53853;51.982;5.928;2023-08-30T08:13:59;7.28;;;5.22;;
66946;SDS011;53853;51.982;5.928;2023-08-30T08:16:29;12.93;;;8.52;;
66946;SDS011;53853;51.982;5.928;2023-08-30T08:19:02;8.98;;;6.47;;
66946;SDS011;53853;51.982;5.928;2023-08-30T08:21:32;6.65;;;5.63;;
66946;SDS011;53853;51.982;5.928;2023-08-30T08:24:03;5.63;;;4.28;;
66946;SDS011;53853;51.982;5.928;2023-08-30T08:26:33;10.23;;;6.15;;
66946;SDS011;53853;51.982;5.928;2023-08-30T08:29:03;5.85;;;4.55;;
66946;SDS011;53853;51.982;5.928;2023-08-30T08:31:33;6.97;;;4.93;;
66946;SDS011;53853;51.982;5.928;2023-08-30T08:34:09;5.93;;;4.40;;
66946;SDS011;53853;51.982;5.928;2023-08-30T08:36:41;7.22;;;5.65;;
66946;SDS011;53853;51.982;5.928;2023-08-30T08:39:11;7.18;;;5.60;;
66946;SDS011;53853;51.982;5.928;2023-08-30T08:41:44;6.03;;;4.47;;
66946;SDS011;53853;51.982;5.928;2023-08-30T08:44:15;10.95;;;6.30;;
66946;SDS011;53853;51.982;5.928;2023-08-30T08:46:46;6.25;;;4.93;;
66946;SDS011;53853;51.982;5.928;2023-08-30T08:49:20;5.80;;;4.60;;
66946;SDS011;53853;51.982;5.928;2023-08-30T08:51:54;7.68;;;5.10;;
66946;SDS011;53853;51.982;5.928;2023-08-30T08:54:24;6.85;;;4.47;;
66946;SDS011;53853;51.982;5.928;2023-08-30T08:56:55;6.43;;;4.13;;
66946;SDS011;53853;51.982;5.928;2023-08-30T08:59:26;8.80;;;6.18;;
66946;SDS011;53853;51.982;5.928;2023-08-30T09:01:56;8.80;;;6.88;;
66946;SDS011;53853;51.982;5.928;2023-08-30T09:04:30;7.95;;;6.72;;
66946;SDS011;53853;51.982;5.928;2023-08-30T09:07:00;10.33;;;8.30;;
66946;SDS011;53853;51.982;5.928;2023-08-30T09:09:32;10.02;;;7.85;;
66946;SDS011;53853;51.982;5.928;2023-08-30T09:12:03;5.82;;;5.22;;
66946;SDS011;53853;51.982;5.928;2023-08-30T09:14:33;7.97;;;6.50;;
66946;SDS011;53853;51.982;5.928;2023-08-30T09:17:03;4.90;;;4.25;;
66946;SDS011;53853;51.982;5.928;2023-08-30T09:19:35;7.30;;;5.45;;
66946;SDS011;53853;51.982;5.928;2023-08-30T09:22:05;5.68;;;4.78;;
66946;SDS011;53853;51.982;5.928;2023-08-30T09:24:38;8.20;;;6.57;;
66946;SDS011;53853;51.982;5.928;2023-08-30T09:29:39;5.78;;;4.53;;
66946;SDS011;53853;51.982;5.928;2023-08-30T09:32:09;5.90;;;4.93;;
66946;SDS011;53853;51.982;5.928;2023-08-30T09:34:47;8.27;;;6.50;;
66946;SDS011;53853;51.982;5.928;2023-08-30T09:37:21;8.32;;;5.38;;
66946;SDS011;53853;51.982;5.928;2023-08-30T09:39:52;7.07;;;5.90;;
66946;SDS011;53853;51.982;5.928;2023-08-30T09:42:22;5.28;;;4.32;;
66946;SDS011;53853;51.982;5.928;2023-08-30T09:44:52;5.88;;;5.00;;
66946;SDS011;53853;51.982;5.928;2023-08-30T09:47:23;5.82;;;4.07;;
66946;SDS011;53853;51.982;5.928;2023-08-30T09:49:57;6.90;;;4.88;;
66946;SDS011;53853;51.982;5.928;2023-08-30T09:52:29;7.80;;;5.80;;
66946;SDS011;53853;51.982;5.928;2023-08-30T09:55:01;7.80;;;4.65;;
66946;SDS011;53853;51.982;5.928;2023-08-30T09:57:32;5.45;;;4.78;;
66946;SDS011;53853;51.982;5.928;2023-08-30T10:00:03;5.88;;;4.22;;
66946;SDS011;53853;51.982;5.928;2023-08-30T10:02:34;7.20;;;4.68;;
66946;SDS011;53853;51.982;5.928;2023-08-30T10:05:10;4.93;;;4.18;;
66946;SDS011;53853;51.982;5.928;2023-08-30T10:07:41;5.05;;;3.80;;
66946;SDS011;53853;51.982;5.928;2023-08-30T10:10:12;4.18;;;2.90;;
66946;SDS011;53853;51.982;5.928;2023-08-30T10:12:42;4.60;;;3.45;;
66946;SDS011;53853;51.982;5.928;2023-08-30T10:15:15;4.85;;;3.95;;
66946;SDS011;53853;51.982;5.928;2023-08-30T10:17:45;5.18;;;4.60;;
66946;SDS011;53853;51.982;5.928;2023-08-30T10:20:21;5.28;;;4.50;;
66946;SDS011;53853;51.982;5.928;2023-08-30T10:22:51;6.55;;;5.80;;
66946;SDS011;53853;51.982;5.928;2023-08-30T10:25:24;5.63;;;5.00;;
66946;SDS011;53853;51.982;5.928;2023-08-30T10:27:56;4.00;;;3.33;;
66946;SDS011;53853;51.982;5.928;2023-08-30T10:30:27;6.57;;;4.57;;
66946;SDS011;53853;51.982;5.928;2023-08-30T10:32:57;4.45;;;2.75;;
66946;SDS011;53853;51.982;5.928;2023-08-30T10:35:31;3.83;;;3.40;;
66946;SDS011;53853;51.982;5.928;2023-08-30T10:38:01;5.13;;;4.25;;
66946;SDS011;53853;51.982;5.928;2023-08-30T10:40:32;5.80;;;5.20;;
66946;SDS011;53853;51.982;5.928;2023-08-30T10:43:02;5.28;;;4.60;;
66946;SDS011;53853;51.982;5.928;2023-08-30T10:45:33;4.00;;;3.60;;
66946;SDS011;53853;51.982;5.928;2023-08-30T10:48:03;5.68;;;4.00;;
66946;SDS011;53853;51.982;5.928;2023-08-30T10:50:36;5.20;;;4.13;;
66946;SDS011;53853;51.982;5.928;2023-08-30T10:53:12;5.35;;;4.22;;
66946;SDS011;53853;51.982;5.928;2023-08-30T10:58:38;7.75;;;7.03;;
66946;SDS011;53853;51.982;5.928;2023-08-30T11:01:12;7.57;;;6.20;;
66946;SDS011;53853;51.982;5.928;2023-08-30T11:03:43;5.93;;;5.28;;
66946;SDS011;53853;51.982;5.928;2023-08-30T11:06:16;5.07;;;4.57;;
66946;SDS011;53853;51.982;5.928;2023-08-30T11:08:46;4.50;;;4.10;;
66946;SDS011;53853;51.982;5.928;2023-08-30T11:11:18;7.57;;;6.88;;
66946;SDS011;53853;51.982;5.928;2023-08-30T11:13:47;5.97;;;5.22;;
66946;SDS011;53853;51.982;5.928;2023-08-30T11:16:21;5.35;;;4.65;;
66946;SDS011;53853;51.982;5.928;2023-08-30T11:18:51;6.88;;;6.20;;
66946;SDS011;53853;51.982;5.928;2023-08-30T11:21:23;3.83;;;3.30;;
66946;SDS011;53853;51.982;5.928;2023-08-30T11:23:53;5.05;;;4.55;;
66946;SDS011;53853;51.982;5.928;2023-08-30T11:26:23;5.90;;;5.30;;
66946;SDS011;53853;51.982;5.928;2023-08-30T11:28:54;6.50;;;5.90;;
66946;SDS011;53853;51.982;5.928;2023-08-30T11:31:25;5.63;;;5.13;;
66946;SDS011;53853;51.982;5.928;2023-08-30T11:33:55;10.43;;;9.32;;
66946;SDS011;53853;51.982;5.928;2023-08-30T11:36:29;5.28;;;4.78;;
66946;SDS011;53853;51.982;5.928;2023-08-30T11:39:00;7.88;;;5.88;;
66946;SDS011;53853;51.982;5.928;2023-08-30T11:41:31;7.25;;;6.22;;
66946;SDS011;53853;51.982;5.928;2023-08-30T11:44:01;8.20;;;7.40;;
66946;SDS011;53853;51.982;5.928;2023-08-30T11:46:32;7.15;;;6.55;;
66946;SDS011;53853;51.982;5.928;2023-08-30T11:49:02;5.70;;;5.10;;
66946;SDS011;53853;51.982;5.928;2023-08-30T11:51:35;5.60;;;4.10;;
66946;SDS011;53853;51.982;5.928;2023-08-30T11:54:06;5.90;;;4.05;;
66946;SDS011;53853;51.982;5.928;2023-08-30T11:56:36;5.03;;;3.88;;
66946;SDS011;53853;51.982;5.928;2023-08-30T11:59:06;6.07;;;4.65;;
66946;SDS011;53853;51.982;5.928;2023-08-30T12:01:46;4.28;;;3.78;;
66946;SDS011;53853;51.982;5.928;2023-08-30T12:04:16;4.68;;;3.35;;
66946;SDS011;53853;51.982;5.928;2023-08-30T12:06:53;5.22;;;4.13;;
66946;SDS011;53853;51.982;5.928;2023-08-30T12:09:29;7.13;;;3.92;;
66946;SDS011;53853;51.982;5.928;2023-08-30T12:12:06;4.85;;;3.05;;
66946;SDS011;53853;51.982;5.928;2023-08-30T12:14:37;5.60;;;3.47;;
66946;SDS011;53853;51.982;5.928;2023-08-30T12:17:08;4.53;;;3.28;;
66946;SDS011;53853;51.982;5.928;2023-08-30T12:19:39;6.53;;;3.25;;
66946;SDS011;53853;51.982;5.928;2023-08-30T12:22:11;6.57;;;3.53;;
66946;SDS011;53853;51.982;5.928;2023-08-30T12:24:42;4.15;;;2.25;;
66946;SDS011;53853;51.982;5.928;2023-08-30T12:27:12;4.18;;;2.55;;
66946;SDS011;53853;51.982;5.928;2023-08-30T12:29:42;7.40;;;2.97;;
66946;SDS011;53853;51.982;5.928;2023-08-30T12:32:12;5.80;;;2.75;;
66946;SDS011;53853;51.982;5.928;2023-08-30T12:34:42;4.68;;;2.83;;
66946;SDS011;53853;51.982;5.928;2023-08-30T12:37:15;5.65;;;2.60;;
66946;SDS011;53853;51.982;5.928;2023-08-30T12:39:45;4.63;;;2.67;;
66946;SDS011;53853;51.982;5.928;2023-08-30T12:42:14;5.25;;;2.33;;
66946;SDS011;53853;51.982;5.928;2023-08-30T12:44:45;7.13;;;2.65;;
66946;SDS011;53853;51.982;5.928;2023-08-30T12:47:15;5.70;;;2.65;;
66946;SDS011;53853;51.982;5.928;2023-08-30T12:49:45;5.72;;;2.45;;
66946;SDS011;53853;51.982;5.928;2023-08-30T12:52:17;8.07;;;3.22;;
66946;SDS011;53853;51.982;5.928;2023-08-30T12:54:47;4.03;;;2.30;;
66946;SDS011;53853;51.982;5.928;2023-08-30T12:57:18;4.55;;;2.47;;
66946;SDS011;53853;51.982;5.928;2023-08-30T12:59:47;6.35;;;2.55;;
66946;SDS011;53853;51.982;5.928;2023-08-30T13:02:17;5.32;;;2.35;;
66946;SDS011;53853;51.982;5.928;2023-08-30T13:04:47;6.93;;;2.63;;
66946;SDS011;53853;51.982;5.928;2023-08-30T13:07:20;4.88;;;2.17;;
66946;SDS011;53853;51.982;5.928;2023-08-30T13:09:50;7.95;;;2.92;;
66946;SDS011;53853;51.982;5.928;2023-08-30T13:12:20;4.65;;;2.78;;
66946;SDS011;53853;51.982;5.928;2023-08-30T13:14:50;9.40;;;3.45;;
66946;SDS011;53853;51.982;5.928;2023-08-30T13:17:20;5.50;;;2.75;;
66946;SDS011;53853;51.982;5.928;2023-08-30T13:19:50;5.45;;;2.70;;
66946;SDS011;53853;51.982;5.928;2023-08-30T13:22:23;5.60;;;2.58;;
66946;SDS011;53853;51.982;5.928;2023-08-30T13:24:54;6.83;;;2.87;;
66946;SDS011;53853;51.982;5.928;2023-08-30T13:27:24;7.32;;;2.85;;
66946;SDS011;53853;51.982;5.928;2023-08-30T13:29:54;7.93;;;2.75;;
66946;SDS011;53853;51.982;5.928;2023-08-30T13:32:24;6.43;;;2.90;;
66946;SDS011;53853;51.982;5.928;2023-08-30T13:34:54;10.02;;;2.75;;
66946;SDS011;53853;51.982;5.928;2023-08-30T13:37:27;7.38;;;2.90;;
66946;SDS011;53853;51.982;5.928;2023-08-30T13:39:57;9.50;;;3.25;;
66946;SDS011;53853;51.982;5.928;2023-08-30T13:42:27;5.93;;;2.53;;
66946;SDS011;53853;51.982;5.928;2023-08-30T13:44:57;4.05;;;2.17;;
66946;SDS011;53853;51.982;5.928;2023-08-30T13:47:27;6.20;;;3.30;;
66946;SDS011;53853;51.982;5.928;2023-08-30T13:49:57;8.48;;;2.33;;
66946;SDS011;53853;51.982;5.928;2023-08-30T13:52:32;5.18;;;2.55;;
66946;SDS011;53853;51.982;5.928;2023-08-30T13:55:02;9.35;;;2.45;;
66946;SDS011;53853;51.982;5.928;2023-08-30T13:57:32;6.78;;;2.80;;
66946;SDS011;53853;51.982;5.928;2023-08-30T14:00:03;8.50;;;3.25;;
66946;SDS011;53853;51.982;5.928;2023-08-30T14:02:35;9.82;;;3.42;;
66946;SDS011;53853;51.982;5.928;2023-08-30T14:05:06;9.18;;;3.90;;
66946;SDS011;53853;51.982;5.928;2023-08-30T14:07:39;6.68;;;2.42;;
66946;SDS011;53853;51.982;5.928;2023-08-30T14:10:09;6.70;;;2.28;;
66946;SDS011;53853;51.982;5.928;2023-08-30T14:12:44;7.57;;;2.42;;
66946;SDS011;53853;51.982;5.928;2023-08-30T14:15:14;4.43;;;1.98;;
66946;SDS011;53853;51.982;5.928;2023-08-30T14:17:43;9.55;;;2.17;;
66946;SDS011;53853;51.982;5.928;2023-08-30T14:20:13;7.10;;;2.45;;
66946;SDS011;53853;51.982;5.928;2023-08-30T14:22:46;10.90;;;2.58;;
66946;SDS011;53853;51.982;5.928;2023-08-30T14:25:16;4.15;;;1.90;;
66946;SDS011;53853;51.982;5.928;2023-08-30T14:27:46;6.22;;;1.98;;
66946;SDS011;53853;51.982;5.928;2023-08-30T14:30:16;5.88;;;2.38;;
66946;SDS011;53853;51.982;5.928;2023-08-30T14:32:46;4.85;;;2.20;;
66946;SDS011;53853;51.982;5.928;2023-08-30T14:35:16;8.13;;;2.45;;
66946;SDS011;53853;51.982;5.928;2023-08-30T14:37:49;6.32;;;2.50;;
66946;SDS011;53853;51.982;5.928;2023-08-30T14:40:19;5.28;;;2.40;;
66946;SDS011;53853;51.982;5.928;2023-08-30T14:42:49;6.97;;;2.38;;
66946;SDS011;53853;51.982;5.928;2023-08-30T14:45:19;8.05;;;2.90;;
66946;SDS011;53853;51.982;5.928;2023-08-30T14:47:49;7.72;;;2.35;;
66946;SDS011;53853;51.982;5.928;2023-08-30T14:50:19;11.57;;;2.75;;
66946;SDS011;53853;51.982;5.928;2023-08-30T14:52:51;9.02;;;2.20;;
66946;SDS011;53853;51.982;5.928;2023-08-30T14:55:21;4.55;;;2.40;;
66946;SDS011;53853;51.982;5.928;2023-08-30T14:57:52;9.18;;;2.50;;
66946;SDS011;53853;51.982;5.928;2023-08-30T15:00:22;5.72;;;2.03;;
66946;SDS011;53853;51.982;5.928;2023-08-30T15:02:52;6.10;;;2.63;;
66946;SDS011;53853;51.982;5.928;2023-08-30T15:05:22;6.60;;;2.10;;
66946;SDS011;53853;51.982;5.928;2023-08-30T15:07:54;5.93;;;2.15;;
66946;SDS011;53853;51.982;5.928;2023-08-30T15:10:24;9.23;;;2.03;;
66946;SDS011;53853;51.982;5.928;2023-08-30T15:12:55;6.35;;;2.17;;
66946;SDS011;53853;51.982;5.928;2023-08-30T15:15:25;5.53;;;1.80;;
66946;SDS011;53853;51.982;5.928;2023-08-30T15:17:56;5.00;;;2.10;;
66946;SDS011;53853;51.982;5.928;2023-08-30T15:20:26;5.57;;;2.00;;
66946;SDS011;53853;51.982;5.928;2023-08-30T15:22:58;5.65;;;1.80;;